sensor_id;sensor_type;location;lat;lon;timestamp;P1;durP1;ratioP1;P2;durP2;ratioP2
34565;SDS011;20803;42.676;26.348;2022-08-07T00:01:14;10.23;;;9.17;;
34565;SDS011;20803;42.676;26.348;2022-08-07T00:03:39;12.27;;;9.87;;
34565;SDS011;20803;42.676;26.348;2022-08-07T00:06:05;11.33;;;9.93;;
34565;SDS011;20803;42.676;26.348;2022-08-07T00:08:31;11.17;;;10.07;;
34565;SDS011;20803;42.676;26.348;2022-08-07T00:10:57;10.63;;;9.63;;
34565;SDS011;20803;42.676;26.348;2022-08-07T00:13:22;10.53;;;9.43;;
34565;SDS011;20803;42.676;26.348;2022-08-07T00:15:48;12.77;;;9.70;;
34565;SDS011;20803;42.676;26.348;2022-08-07T00:18:16;12.00;;;10.50;;
34565;SDS011;20803;42.676;26.348;2022-08-07T00:20:43;11.80;;;9.60;;
34565;SDS011;20803;42.676;26.348;2022-08-07T00:23:08;12.43;;;10.10;;
34565;SDS011;20803;42.676;26.348;2022-08-07T00:25:34;11.77;;;9.93;;
34565;SDS011;20803;42.676;26.348;2022-08-07T00:28:01;10.70;;;9.60;;
34565;SDS011;20803;42.676;26.348;2022-08-07T00:30:27;11.37;;;10.27;;
34565;SDS011;20803;42.676;26.348;2022-08-07T00:32:53;10.97;;;9.70;;
34565;SDS011;20803;42.676;26.348;2022-08-07T00:35:20;11.70;;;9.90;;
34565;SDS011;20803;42.676;26.348;2022-08-07T00:37:45;12.10;;;10.00;;
34565;SDS011;20803;42.676;26.348;2022-08-07T00:40:12;11.40;;;10.30;;
34565;SDS011;20803;42.676;26.348;2022-08-07T00:42:39;11.50;;;10.30;;
34565;SDS011;20803;42.676;26.348;2022-08-07T00:45:06;15.03;;;10.43;;
34565;SDS011;20803;42.676;26.348;2022-08-07T00:47:32;12.10;;;10.77;;
34565;SDS011;20803;42.676;26.348;2022-08-07T00:49:58;13.83;;;9.57;;
34565;SDS011;20803;42.676;26.348;2022-08-07T00:52:24;12.37;;;10.17;;
34565;SDS011;20803;42.676;26.348;2022-08-07T00:54:50;12.97;;;10.50;;
34565;SDS011;20803;42.676;26.348;2022-08-07T00:57:16;11.57;;;10.40;;
34565;SDS011;20803;42.676;26.348;2022-08-07T00:59:42;12.13;;;10.87;;
34565;SDS011;20803;42.676;26.348;2022-08-07T01:02:08;11.10;;;9.70;;
34565;SDS011;20803;42.676;26.348;2022-08-07T01:04:35;11.47;;;10.27;;
34565;SDS011;20803;42.676;26.348;2022-08-07T01:07:01;11.57;;;10.30;;
34565;SDS011;20803;42.676;26.348;2022-08-07T01:09:28;11.33;;;10.23;;
34565;SDS011;20803;42.676;26.348;2022-08-07T01:11:54;11.87;;;10.33;;
34565;SDS011;20803;42.676;26.348;2022-08-07T01:14:20;11.77;;;9.47;;
34565;SDS011;20803;42.676;26.348;2022-08-07T01:16:47;11.57;;;10.33;;
34565;SDS011;20803;42.676;26.348;2022-08-07T01:19:14;11.43;;;9.50;;
34565;SDS011;20803;42.676;26.348;2022-08-07T01:21:41;10.70;;;9.60;;
34565;SDS011;20803;42.676;26.348;2022-08-07T01:24:07;12.40;;;10.43;;
34565;SDS011;20803;42.676;26.348;2022-08-07T01:26:33;11.80;;;10.17;;
34565;SDS011;20803;42.676;26.348;2022-08-07T01:28:59;10.60;;;9.60;;
34565;SDS011;20803;42.676;26.348;2022-08-07T01:31:25;10.17;;;9.17;;
34565;SDS011;20803;42.676;26.348;2022-08-07T01:34:00;11.40;;;9.67;;
34565;SDS011;20803;42.676;26.348;2022-08-07T01:36:27;11.53;;;10.33;;
34565;SDS011;20803;42.676;26.348;2022-08-07T01:38:53;9.53;;;8.60;;
34565;SDS011;20803;42.676;26.348;2022-08-07T01:41:21;10.23;;;8.70;;
34565;SDS011;20803;42.676;26.348;2022-08-07T01:43:47;10.50;;;9.40;;
34565;SDS011;20803;42.676;26.348;2022-08-07T01:46:14;10.67;;;9.57;;
34565;SDS011;20803;42.676;26.348;2022-08-07T01:48:41;10.67;;;9.50;;
34565;SDS011;20803;42.676;26.348;2022-08-07T01:51:08;10.37;;;8.90;;
34565;SDS011;20803;42.676;26.348;2022-08-07T01:53:36;9.80;;;8.80;;
34565;SDS011;20803;42.676;26.348;2022-08-07T01:56:08;10.93;;;9.87;;
34565;SDS011;20803;42.676;26.348;2022-08-07T01:58:38;12.90;;;9.40;;
34565;SDS011;20803;42.676;26.348;2022-08-07T02:01:08;11.87;;;9.03;;
34565;SDS011;20803;42.676;26.348;2022-08-07T02:03:40;19.63;;;10.10;;
34565;SDS011;20803;42.676;26.348;2022-08-07T02:06:10;10.73;;;9.63;;
34565;SDS011;20803;42.676;26.348;2022-08-07T02:08:37;11.97;;;9.53;;
34565;SDS011;20803;42.676;26.348;2022-08-07T02:11:06;10.47;;;9.30;;
34565;SDS011;20803;42.676;26.348;2022-08-07T02:13:33;9.77;;;8.87;;
34565;SDS011;20803;42.676;26.348;2022-08-07T02:16:01;10.00;;;9.00;;
34565;SDS011;20803;42.676;26.348;2022-08-07T02:18:28;10.33;;;8.97;;
34565;SDS011;20803;42.676;26.348;2022-08-07T02:20:56;11.67;;;9.03;;
34565;SDS011;20803;42.676;26.348;2022-08-07T02:23:24;9.60;;;8.67;;
34565;SDS011;20803;42.676;26.348;2022-08-07T02:25:52;11.20;;;9.23;;
34565;SDS011;20803;42.676;26.348;2022-08-07T02:28:20;10.17;;;8.50;;
34565;SDS011;20803;42.676;26.348;2022-08-07T02:30:47;12.53;;;9.73;;
34565;SDS011;20803;42.676;26.348;2022-08-07T02:33:14;10.13;;;8.47;;
34565;SDS011;20803;42.676;26.348;2022-08-07T02:35:41;10.50;;;8.37;;
34565;SDS011;20803;42.676;26.348;2022-08-07T02:38:08;10.00;;;8.73;;
34565;SDS011;20803;42.676;26.348;2022-08-07T02:40:36;9.93;;;8.93;;
34565;SDS011;20803;42.676;26.348;2022-08-07T02:43:02;10.37;;;8.83;;
34565;SDS011;20803;42.676;26.348;2022-08-07T02:45:30;9.57;;;8.67;;
34565;SDS011;20803;42.676;26.348;2022-08-07T02:47:57;9.73;;;8.77;;
34565;SDS011;20803;42.676;26.348;2022-08-07T02:50:23;9.83;;;8.83;;
34565;SDS011;20803;42.676;26.348;2022-08-07T02:52:53;10.10;;;9.03;;
34565;SDS011;20803;42.676;26.348;2022-08-07T02:55:26;11.43;;;9.37;;
34565;SDS011;20803;42.676;26.348;2022-08-07T02:57:55;10.17;;;9.10;;
34565;SDS011;20803;42.676;26.348;2022-08-07T03:00:26;10.43;;;8.80;;
34565;SDS011;20803;42.676;26.348;2022-08-07T03:02:53;10.30;;;9.20;;
34565;SDS011;20803;42.676;26.348;2022-08-07T03:05:19;9.40;;;8.50;;
34565;SDS011;20803;42.676;26.348;2022-08-07T03:07:45;11.40;;;8.97;;
34565;SDS011;20803;42.676;26.348;2022-08-07T03:10:12;10.27;;;9.17;;
34565;SDS011;20803;42.676;26.348;2022-08-07T03:12:38;10.87;;;9.70;;
34565;SDS011;20803;42.676;26.348;2022-08-07T03:15:05;10.30;;;9.20;;
34565;SDS011;20803;42.676;26.348;2022-08-07T03:17:32;9.80;;;8.90;;
34565;SDS011;20803;42.676;26.348;2022-08-07T03:19:58;12.47;;;9.83;;
34565;SDS011;20803;42.676;26.348;2022-08-07T03:22:25;11.53;;;9.70;;
34565;SDS011;20803;42.676;26.348;2022-08-07T03:24:50;10.50;;;8.87;;
34565;SDS011;20803;42.676;26.348;2022-08-07T03:27:16;10.87;;;9.73;;
34565;SDS011;20803;42.676;26.348;2022-08-07T03:29:45;9.77;;;8.77;;
34565;SDS011;20803;42.676;26.348;2022-08-07T03:32:13;11.93;;;9.33;;
34565;SDS011;20803;42.676;26.348;2022-08-07T03:34:44;10.97;;;8.87;;
34565;SDS011;20803;42.676;26.348;2022-08-07T03:37:12;10.10;;;9.03;;
34565;SDS011;20803;42.676;26.348;2022-08-07T03:39:40;9.63;;;8.63;;
34565;SDS011;20803;42.676;26.348;2022-08-07T03:42:06;9.53;;;8.63;;
34565;SDS011;20803;42.676;26.348;2022-08-07T03:44:33;14.33;;;9.53;;
34565;SDS011;20803;42.676;26.348;2022-08-07T03:47:00;11.97;;;8.43;;
34565;SDS011;20803;42.676;26.348;2022-08-07T03:49:27;11.00;;;9.57;;
34565;SDS011;20803;42.676;26.348;2022-08-07T03:51:54;10.13;;;8.60;;
34565;SDS011;20803;42.676;26.348;2022-08-07T03:54:21;10.00;;;9.00;;
34565;SDS011;20803;42.676;26.348;2022-08-07T03:56:46;10.20;;;8.37;;
34565;SDS011;20803;42.676;26.348;2022-08-07T03:59:13;9.57;;;8.57;;
34565;SDS011;20803;42.676;26.348;2022-08-07T04:01:40;9.93;;;8.83;;
34565;SDS011;20803;42.676;26.348;2022-08-07T04:04:08;9.30;;;8.50;;
34565;SDS011;20803;42.676;26.348;2022-08-07T04:06:35;10.00;;;8.33;;
34565;SDS011;20803;42.676;26.348;2022-08-07T04:09:01;9.80;;;8.87;;
34565;SDS011;20803;42.676;26.348;2022-08-07T04:11:27;10.50;;;9.07;;
34565;SDS011;20803;42.676;26.348;2022-08-07T04:13:53;9.00;;;8.10;;
34565;SDS011;20803;42.676;26.348;2022-08-07T04:16:20;12.90;;;8.50;;
34565;SDS011;20803;42.676;26.348;2022-08-07T04:18:46;12.73;;;8.17;;
34565;SDS011;20803;42.676;26.348;2022-08-07T04:21:12;8.47;;;7.63;;
34565;SDS011;20803;42.676;26.348;2022-08-07T04:23:38;8.57;;;7.77;;
34565;SDS011;20803;42.676;26.348;2022-08-07T04:26:07;8.60;;;7.77;;
34565;SDS011;20803;42.676;26.348;2022-08-07T04:28:33;9.20;;;8.00;;
34565;SDS011;20803;42.676;26.348;2022-08-07T04:30:58;11.13;;;9.40;;
34565;SDS011;20803;42.676;26.348;2022-08-07T04:33:24;13.63;;;8.57;;
34565;SDS011;20803;42.676;26.348;2022-08-07T04:35:51;11.57;;;7.30;;
34565;SDS011;20803;42.676;26.348;2022-08-07T04:38:17;10.93;;;7.43;;
34565;SDS011;20803;42.676;26.348;2022-08-07T04:40:44;12.23;;;8.73;;
34565;SDS011;20803;42.676;26.348;2022-08-07T04:43:10;9.03;;;8.03;;
34565;SDS011;20803;42.676;26.348;2022-08-07T04:48:19;9.30;;;8.30;;
34565;SDS011;20803;42.676;26.348;2022-08-07T04:51:05;9.37;;;8.47;;
34565;SDS011;20803;42.676;26.348;2022-08-07T04:53:43;9.67;;;7.87;;
34565;SDS011;20803;42.676;26.348;2022-08-07T04:56:23;11.10;;;7.93;;
34565;SDS011;20803;42.676;26.348;2022-08-07T04:59:00;13.27;;;7.67;;
34565;SDS011;20803;42.676;26.348;2022-08-07T05:01:42;9.93;;;7.67;;
34565;SDS011;20803;42.676;26.348;2022-08-07T05:06:45;7.97;;;7.17;;
34565;SDS011;20803;42.676;26.348;2022-08-07T05:11:55;11.27;;;6.93;;
34565;SDS011;20803;42.676;26.348;2022-08-07T05:14:25;6.20;;;5.60;;
34565;SDS011;20803;42.676;26.348;2022-08-07T05:16:55;6.77;;;6.13;;
34565;SDS011;20803;42.676;26.348;2022-08-07T05:19:24;7.13;;;6.47;;
34565;SDS011;20803;42.676;26.348;2022-08-07T05:21:58;9.00;;;7.10;;
34565;SDS011;20803;42.676;26.348;2022-08-07T05:24:26;7.07;;;6.37;;
34565;SDS011;20803;42.676;26.348;2022-08-07T05:26:55;7.10;;;6.50;;
34565;SDS011;20803;42.676;26.348;2022-08-07T05:29:22;8.70;;;6.80;;
34565;SDS011;20803;42.676;26.348;2022-08-07T05:31:49;8.60;;;6.67;;
34565;SDS011;20803;42.676;26.348;2022-08-07T05:34:17;7.67;;;6.43;;
34565;SDS011;20803;42.676;26.348;2022-08-07T05:36:47;7.20;;;6.53;;
34565;SDS011;20803;42.676;26.348;2022-08-07T05:39:17;8.67;;;6.60;;
34565;SDS011;20803;42.676;26.348;2022-08-07T05:41:44;8.97;;;6.27;;
34565;SDS011;20803;42.676;26.348;2022-08-07T05:44:12;9.33;;;6.80;;
34565;SDS011;20803;42.676;26.348;2022-08-07T05:46:39;6.97;;;6.27;;
34565;SDS011;20803;42.676;26.348;2022-08-07T05:49:07;7.03;;;6.33;;
34565;SDS011;20803;42.676;26.348;2022-08-07T05:51:34;7.70;;;5.83;;
34565;SDS011;20803;42.676;26.348;2022-08-07T05:54:02;6.73;;;6.13;;
34565;SDS011;20803;42.676;26.348;2022-08-07T05:56:28;7.07;;;6.17;;
34565;SDS011;20803;42.676;26.348;2022-08-07T05:58:57;6.87;;;6.17;;
34565;SDS011;20803;42.676;26.348;2022-08-07T06:01:26;6.77;;;6.00;;
34565;SDS011;20803;42.676;26.348;2022-08-07T06:03:54;7.83;;;6.13;;
34565;SDS011;20803;42.676;26.348;2022-08-07T06:06:22;8.17;;;5.60;;
34565;SDS011;20803;42.676;26.348;2022-08-07T06:08:48;6.80;;;5.93;;
34565;SDS011;20803;42.676;26.348;2022-08-07T06:11:15;6.97;;;5.97;;
34565;SDS011;20803;42.676;26.348;2022-08-07T06:13:41;6.60;;;6.00;;
34565;SDS011;20803;42.676;26.348;2022-08-07T06:16:07;6.37;;;5.77;;
34565;SDS011;20803;42.676;26.348;2022-08-07T06:18:33;7.13;;;6.47;;
34565;SDS011;20803;42.676;26.348;2022-08-07T06:20:59;7.13;;;6.27;;
34565;SDS011;20803;42.676;26.348;2022-08-07T06:23:27;5.33;;;4.93;;
34565;SDS011;20803;42.676;26.348;2022-08-07T06:25:53;5.87;;;5.03;;
34565;SDS011;20803;42.676;26.348;2022-08-07T06:28:19;30.03;;;5.70;;
34565;SDS011;20803;42.676;26.348;2022-08-07T06:30:45;6.07;;;5.47;;
34565;SDS011;20803;42.676;26.348;2022-08-07T06:33:10;13.73;;;5.10;;
34565;SDS011;20803;42.676;26.348;2022-08-07T06:35:36;5.90;;;5.30;;
34565;SDS011;20803;42.676;26.348;2022-08-07T06:38:02;8.20;;;5.57;;
34565;SDS011;20803;42.676;26.348;2022-08-07T06:40:29;10.43;;;5.37;;
34565;SDS011;20803;42.676;26.348;2022-08-07T06:42:59;8.80;;;5.60;;
34565;SDS011;20803;42.676;26.348;2022-08-07T06:45:26;7.87;;;5.97;;
34565;SDS011;20803;42.676;26.348;2022-08-07T06:47:53;7.23;;;5.73;;
34565;SDS011;20803;42.676;26.348;2022-08-07T06:50:19;7.23;;;5.50;;
34565;SDS011;20803;42.676;26.348;2022-08-07T06:52:46;7.03;;;5.90;;
34565;SDS011;20803;42.676;26.348;2022-08-07T06:55:20;5.90;;;5.40;;
34565;SDS011;20803;42.676;26.348;2022-08-07T06:57:48;9.03;;;5.90;;
34565;SDS011;20803;42.676;26.348;2022-08-07T07:00:15;10.60;;;6.00;;
34565;SDS011;20803;42.676;26.348;2022-08-07T07:02:43;6.60;;;5.90;;
34565;SDS011;20803;42.676;26.348;2022-08-07T07:05:10;8.70;;;5.63;;
34565;SDS011;20803;42.676;26.348;2022-08-07T07:07:36;5.90;;;5.27;;
34565;SDS011;20803;42.676;26.348;2022-08-07T07:10:02;6.63;;;5.93;;
34565;SDS011;20803;42.676;26.348;2022-08-07T07:15:38;6.07;;;5.47;;
34565;SDS011;20803;42.676;26.348;2022-08-07T07:18:00;11.00;;;6.53;;
34565;SDS011;20803;42.676;26.348;2022-08-07T07:20:50;6.10;;;5.50;;
34565;SDS011;20803;42.676;26.348;2022-08-07T07:23:19;6.83;;;6.17;;
34565;SDS011;20803;42.676;26.348;2022-08-07T07:25:46;6.70;;;5.97;;
34565;SDS011;20803;42.676;26.348;2022-08-07T07:31:26;12.20;;;5.33;;
34565;SDS011;20803;42.676;26.348;2022-08-07T07:33:57;9.90;;;5.37;;
34565;SDS011;20803;42.676;26.348;2022-08-07T07:36:27;5.97;;;5.37;;
34565;SDS011;20803;42.676;26.348;2022-08-07T07:38:56;7.17;;;5.40;;
34565;SDS011;20803;42.676;26.348;2022-08-07T07:41:24;6.10;;;5.50;;
34565;SDS011;20803;42.676;26.348;2022-08-07T07:43:51;6.60;;;5.87;;
34565;SDS011;20803;42.676;26.348;2022-08-07T07:46:19;7.00;;;6.30;;
34565;SDS011;20803;42.676;26.348;2022-08-07T07:48:47;9.13;;;5.53;;
34565;SDS011;20803;42.676;26.348;2022-08-07T07:51:16;6.23;;;5.40;;
34565;SDS011;20803;42.676;26.348;2022-08-07T07:53:43;6.60;;;6.00;;
34565;SDS011;20803;42.676;26.348;2022-08-07T07:56:09;9.63;;;6.40;;
34565;SDS011;20803;42.676;26.348;2022-08-07T07:58:37;6.83;;;6.23;;
34565;SDS011;20803;42.676;26.348;2022-08-07T08:01:04;7.13;;;6.53;;
34565;SDS011;20803;42.676;26.348;2022-08-07T08:03:32;8.00;;;6.73;;
34565;SDS011;20803;42.676;26.348;2022-08-07T08:05:59;7.60;;;6.90;;
34565;SDS011;20803;42.676;26.348;2022-08-07T08:08:29;7.50;;;6.80;;
34565;SDS011;20803;42.676;26.348;2022-08-07T08:10:56;6.50;;;5.77;;
34565;SDS011;20803;42.676;26.348;2022-08-07T08:13:23;11.63;;;7.23;;
34565;SDS011;20803;42.676;26.348;2022-08-07T08:15:51;9.97;;;7.00;;
34565;SDS011;20803;42.676;26.348;2022-08-07T08:18:18;8.17;;;7.00;;
34565;SDS011;20803;42.676;26.348;2022-08-07T08:20:46;8.50;;;7.37;;
34565;SDS011;20803;42.676;26.348;2022-08-07T08:23:12;9.30;;;6.93;;
34565;SDS011;20803;42.676;26.348;2022-08-07T08:26:00;11.70;;;7.63;;
34565;SDS011;20803;42.676;26.348;2022-08-07T08:28:51;7.33;;;6.60;;
34565;SDS011;20803;42.676;26.348;2022-08-07T08:31:22;7.03;;;6.33;;
34565;SDS011;20803;42.676;26.348;2022-08-07T08:33:54;7.37;;;6.70;;
34565;SDS011;20803;42.676;26.348;2022-08-07T08:36:23;7.23;;;6.53;;
34565;SDS011;20803;42.676;26.348;2022-08-07T08:38:51;8.87;;;6.90;;
34565;SDS011;20803;42.676;26.348;2022-08-07T08:41:22;6.97;;;6.33;;
34565;SDS011;20803;42.676;26.348;2022-08-07T08:47:24;6.37;;;5.77;;
34565;SDS011;20803;42.676;26.348;2022-08-07T08:52:31;7.33;;;6.63;;
34565;SDS011;20803;42.676;26.348;2022-08-07T08:55:13;6.33;;;5.70;;
34565;SDS011;20803;42.676;26.348;2022-08-07T09:00:51;9.53;;;6.60;;
34565;SDS011;20803;42.676;26.348;2022-08-07T09:03:33;8.60;;;6.03;;
34565;SDS011;20803;42.676;26.348;2022-08-07T09:08:50;11.57;;;6.53;;
34565;SDS011;20803;42.676;26.348;2022-08-07T09:11:34;7.27;;;4.23;;
34565;SDS011;20803;42.676;26.348;2022-08-07T09:14:16;6.43;;;5.93;;
34565;SDS011;20803;42.676;26.348;2022-08-07T09:25:36;8.30;;;6.70;;
34565;SDS011;20803;42.676;26.348;2022-08-07T09:36:29;11.47;;;6.30;;
34565;SDS011;20803;42.676;26.348;2022-08-07T09:39:02;11.07;;;5.63;;
34565;SDS011;20803;42.676;26.348;2022-08-07T09:44:21;6.80;;;5.90;;
34565;SDS011;20803;42.676;26.348;2022-08-07T09:52:25;7.30;;;5.07;;
34565;SDS011;20803;42.676;26.348;2022-08-07T09:57:46;9.77;;;5.07;;
34565;SDS011;20803;42.676;26.348;2022-08-07T10:00:28;9.30;;;5.27;;
34565;SDS011;20803;42.676;26.348;2022-08-07T10:11:58;7.67;;;5.37;;
34565;SDS011;20803;42.676;26.348;2022-08-07T10:14:43;6.67;;;5.13;;
34565;SDS011;20803;42.676;26.348;2022-08-07T10:25:35;8.07;;;5.50;;
34565;SDS011;20803;42.676;26.348;2022-08-07T10:38:59;6.33;;;5.10;;
34565;SDS011;20803;42.676;26.348;2022-08-07T10:41:50;6.70;;;5.30;;
34565;SDS011;20803;42.676;26.348;2022-08-07T10:44:40;8.47;;;4.57;;
34565;SDS011;20803;42.676;26.348;2022-08-07T10:47:17;4.97;;;4.40;;
34565;SDS011;20803;42.676;26.348;2022-08-07T10:49:49;8.77;;;5.57;;
34565;SDS011;20803;42.676;26.348;2022-08-07T10:52:32;7.00;;;5.40;;
34565;SDS011;20803;42.676;26.348;2022-08-07T10:55:16;8.50;;;5.13;;
34565;SDS011;20803;42.676;26.348;2022-08-07T10:57:50;7.10;;;4.53;;
34565;SDS011;20803;42.676;26.348;2022-08-07T11:00:26;5.20;;;4.30;;
34565;SDS011;20803;42.676;26.348;2022-08-07T11:05:46;7.40;;;4.90;;
34565;SDS011;20803;42.676;26.348;2022-08-07T11:13:55;7.43;;;4.40;;
34565;SDS011;20803;42.676;26.348;2022-08-07T11:16:31;8.13;;;4.40;;
34565;SDS011;20803;42.676;26.348;2022-08-07T11:22:14;4.77;;;4.37;;
34565;SDS011;20803;42.676;26.348;2022-08-07T11:27:21;8.37;;;4.50;;
34565;SDS011;20803;42.676;26.348;2022-08-07T11:29:53;5.73;;;4.13;;
34565;SDS011;20803;42.676;26.348;2022-08-07T11:32:31;5.27;;;4.30;;
34565;SDS011;20803;42.676;26.348;2022-08-07T11:34:58;4.57;;;4.10;;
34565;SDS011;20803;42.676;26.348;2022-08-07T11:40:30;4.90;;;4.43;;
34565;SDS011;20803;42.676;26.348;2022-08-07T11:43:20;4.50;;;3.90;;
34565;SDS011;20803;42.676;26.348;2022-08-07T11:51:41;7.90;;;4.60;;
34565;SDS011;20803;42.676;26.348;2022-08-07T12:07:51;7.37;;;6.23;;
34565;SDS011;20803;42.676;26.348;2022-08-07T12:10:24;11.17;;;7.90;;
34565;SDS011;20803;42.676;26.348;2022-08-07T12:13:13;7.87;;;6.10;;
34565;SDS011;20803;42.676;26.348;2022-08-07T12:15:51;7.07;;;5.00;;
34565;SDS011;20803;42.676;26.348;2022-08-07T12:24:18;9.10;;;5.37;;
34565;SDS011;20803;42.676;26.348;2022-08-07T12:26:48;6.73;;;5.13;;
34565;SDS011;20803;42.676;26.348;2022-08-07T12:29:27;6.67;;;5.20;;
34565;SDS011;20803;42.676;26.348;2022-08-07T12:34:34;10.10;;;9.13;;
34565;SDS011;20803;42.676;26.348;2022-08-07T12:37:02;9.67;;;7.00;;
34565;SDS011;20803;42.676;26.348;2022-08-07T12:39:29;9.50;;;7.37;;
34565;SDS011;20803;42.676;26.348;2022-08-07T12:41:58;10.07;;;7.40;;
34565;SDS011;20803;42.676;26.348;2022-08-07T12:44:25;5.40;;;4.90;;
34565;SDS011;20803;42.676;26.348;2022-08-07T12:52:51;5.90;;;5.27;;
34565;SDS011;20803;42.676;26.348;2022-08-07T12:55:26;6.40;;;5.00;;
34565;SDS011;20803;42.676;26.348;2022-08-07T12:57:59;10.77;;;5.43;;
34565;SDS011;20803;42.676;26.348;2022-08-07T13:00:37;7.80;;;5.53;;
34565;SDS011;20803;42.676;26.348;2022-08-07T13:05:59;10.03;;;5.37;;
34565;SDS011;20803;42.676;26.348;2022-08-07T13:11:47;6.87;;;4.80;;
34565;SDS011;20803;42.676;26.348;2022-08-07T13:14:50;7.07;;;5.20;;
34565;SDS011;20803;42.676;26.348;2022-08-07T13:17:44;6.50;;;5.00;;
34565;SDS011;20803;42.676;26.348;2022-08-07T13:20:34;5.43;;;4.93;;
34565;SDS011;20803;42.676;26.348;2022-08-07T13:25:54;5.53;;;5.03;;
34565;SDS011;20803;42.676;26.348;2022-08-07T13:31:22;7.00;;;4.80;;
34565;SDS011;20803;42.676;26.348;2022-08-07T13:36:31;9.20;;;5.30;;
34565;SDS011;20803;42.676;26.348;2022-08-07T13:41:59;5.93;;;5.00;;
34565;SDS011;20803;42.676;26.348;2022-08-07T13:44:27;6.83;;;4.40;;
34565;SDS011;20803;42.676;26.348;2022-08-07T13:46:58;8.40;;;4.93;;
34565;SDS011;20803;42.676;26.348;2022-08-07T13:49:31;11.17;;;4.97;;
34565;SDS011;20803;42.676;26.348;2022-08-07T13:52:06;9.67;;;5.30;;
34565;SDS011;20803;42.676;26.348;2022-08-07T13:54:32;12.03;;;5.00;;
34565;SDS011;20803;42.676;26.348;2022-08-07T13:57:01;8.07;;;5.07;;
34565;SDS011;20803;42.676;26.348;2022-08-07T13:59:32;8.33;;;4.90;;
34565;SDS011;20803;42.676;26.348;2022-08-07T14:04:46;6.77;;;5.53;;
34565;SDS011;20803;42.676;26.348;2022-08-07T14:07:27;10.67;;;5.47;;
34565;SDS011;20803;42.676;26.348;2022-08-07T14:09:59;5.93;;;5.43;;
34565;SDS011;20803;42.676;26.348;2022-08-07T14:18:25;8.33;;;5.77;;
34565;SDS011;20803;42.676;26.348;2022-08-07T14:21:10;7.60;;;4.87;;
34565;SDS011;20803;42.676;26.348;2022-08-07T14:23:37;9.10;;;5.57;;
34565;SDS011;20803;42.676;26.348;2022-08-07T14:26:11;8.30;;;5.40;;
34565;SDS011;20803;42.676;26.348;2022-08-07T14:28:40;6.97;;;5.43;;
34565;SDS011;20803;42.676;26.348;2022-08-07T14:31:08;7.67;;;5.50;;
34565;SDS011;20803;42.676;26.348;2022-08-07T14:33:36;7.57;;;5.53;;
34565;SDS011;20803;42.676;26.348;2022-08-07T14:36:02;6.33;;;4.77;;
34565;SDS011;20803;42.676;26.348;2022-08-07T14:38:29;8.27;;;5.40;;
34565;SDS011;20803;42.676;26.348;2022-08-07T14:41:00;7.73;;;5.47;;
34565;SDS011;20803;42.676;26.348;2022-08-07T14:43:30;6.70;;;5.00;;
34565;SDS011;20803;42.676;26.348;2022-08-07T14:45:58;6.27;;;5.50;;
34565;SDS011;20803;42.676;26.348;2022-08-07T14:48:26;5.17;;;4.63;;
34565;SDS011;20803;42.676;26.348;2022-08-07T14:50:57;6.13;;;5.33;;
34565;SDS011;20803;42.676;26.348;2022-08-07T14:53:27;7.17;;;5.90;;
34565;SDS011;20803;42.676;26.348;2022-08-07T14:55:55;6.33;;;5.40;;
34565;SDS011;20803;42.676;26.348;2022-08-07T14:58:30;6.33;;;5.30;;
34565;SDS011;20803;42.676;26.348;2022-08-07T15:00:57;6.70;;;6.00;;
34565;SDS011;20803;42.676;26.348;2022-08-07T15:03:25;5.87;;;5.23;;
34565;SDS011;20803;42.676;26.348;2022-08-07T15:05:52;9.90;;;5.37;;
34565;SDS011;20803;42.676;26.348;2022-08-07T15:08:22;8.17;;;5.10;;
34565;SDS011;20803;42.676;26.348;2022-08-07T15:10:54;5.80;;;4.40;;
34565;SDS011;20803;42.676;26.348;2022-08-07T15:13:23;6.67;;;4.80;;
34565;SDS011;20803;42.676;26.348;2022-08-07T15:15:50;5.33;;;4.70;;
34565;SDS011;20803;42.676;26.348;2022-08-07T15:18:21;5.83;;;5.03;;
34565;SDS011;20803;42.676;26.348;2022-08-07T15:20:57;5.80;;;4.87;;
34565;SDS011;20803;42.676;26.348;2022-08-07T15:23:25;10.50;;;5.20;;
34565;SDS011;20803;42.676;26.348;2022-08-07T15:25:54;8.40;;;5.17;;
34565;SDS011;20803;42.676;26.348;2022-08-07T15:28:22;6.80;;;4.50;;
34565;SDS011;20803;42.676;26.348;2022-08-07T15:30:53;8.83;;;4.83;;
34565;SDS011;20803;42.676;26.348;2022-08-07T15:33:23;7.63;;;4.43;;
34565;SDS011;20803;42.676;26.348;2022-08-07T15:35:50;7.67;;;4.90;;
34565;SDS011;20803;42.676;26.348;2022-08-07T15:38:35;5.90;;;4.37;;
34565;SDS011;20803;42.676;26.348;2022-08-07T15:41:03;6.70;;;4.70;;
34565;SDS011;20803;42.676;26.348;2022-08-07T15:43:34;5.63;;;4.73;;
34565;SDS011;20803;42.676;26.348;2022-08-07T15:46:14;7.40;;;4.80;;
34565;SDS011;20803;42.676;26.348;2022-08-07T15:48:45;6.93;;;4.50;;
34565;SDS011;20803;42.676;26.348;2022-08-07T15:51:14;8.17;;;3.87;;
34565;SDS011;20803;42.676;26.348;2022-08-07T15:53:45;5.10;;;4.33;;
34565;SDS011;20803;42.676;26.348;2022-08-07T15:56:13;5.50;;;4.70;;
34565;SDS011;20803;42.676;26.348;2022-08-07T16:04:03;4.93;;;4.53;;
34565;SDS011;20803;42.676;26.348;2022-08-07T16:09:19;6.30;;;4.47;;
34565;SDS011;20803;42.676;26.348;2022-08-07T16:25:55;8.33;;;5.17;;
34565;SDS011;20803;42.676;26.348;2022-08-07T16:30:55;7.63;;;4.97;;
34565;SDS011;20803;42.676;26.348;2022-08-07T16:33:30;6.53;;;4.90;;
34565;SDS011;20803;42.676;26.348;2022-08-07T16:36:02;6.70;;;4.27;;
34565;SDS011;20803;42.676;26.348;2022-08-07T16:39:02;9.10;;;4.73;;
34565;SDS011;20803;42.676;26.348;2022-08-07T16:53:13;7.50;;;4.67;;
34565;SDS011;20803;42.676;26.348;2022-08-07T16:56:17;5.87;;;5.23;;
34565;SDS011;20803;42.676;26.348;2022-08-07T17:04:36;6.73;;;5.17;;
34565;SDS011;20803;42.676;26.348;2022-08-07T17:12:14;6.73;;;6.00;;
34565;SDS011;20803;42.676;26.348;2022-08-07T17:20:15;6.57;;;5.13;;
34565;SDS011;20803;42.676;26.348;2022-08-07T17:22:47;8.77;;;5.70;;
34565;SDS011;20803;42.676;26.348;2022-08-07T17:25:49;5.87;;;5.00;;
34565;SDS011;20803;42.676;26.348;2022-08-07T17:28:30;5.87;;;5.10;;
34565;SDS011;20803;42.676;26.348;2022-08-07T17:31:11;8.07;;;4.90;;
34565;SDS011;20803;42.676;26.348;2022-08-07T17:33:46;11.50;;;6.13;;
34565;SDS011;20803;42.676;26.348;2022-08-07T17:36:17;7.23;;;4.70;;
34565;SDS011;20803;42.676;26.348;2022-08-07T17:39:03;8.07;;;5.23;;
34565;SDS011;20803;42.676;26.348;2022-08-07T17:41:36;5.70;;;5.00;;
34565;SDS011;20803;42.676;26.348;2022-08-07T17:44:10;10.33;;;5.20;;
34565;SDS011;20803;42.676;26.348;2022-08-07T17:50:05;10.00;;;5.10;;
34565;SDS011;20803;42.676;26.348;2022-08-07T17:52:39;5.53;;;4.77;;
34565;SDS011;20803;42.676;26.348;2022-08-07T17:55:13;6.20;;;5.17;;
34565;SDS011;20803;42.676;26.348;2022-08-07T17:57:51;10.97;;;5.53;;
34565;SDS011;20803;42.676;26.348;2022-08-07T18:00:24;9.00;;;5.67;;
34565;SDS011;20803;42.676;26.348;2022-08-07T18:02:56;5.53;;;4.87;;
34565;SDS011;20803;42.676;26.348;2022-08-07T18:05:30;5.17;;;4.67;;
34565;SDS011;20803;42.676;26.348;2022-08-07T18:08:12;7.17;;;5.23;;
34565;SDS011;20803;42.676;26.348;2022-08-07T18:10:54;8.03;;;4.97;;
34565;SDS011;20803;42.676;26.348;2022-08-07T18:13:36;5.80;;;5.30;;
34565;SDS011;20803;42.676;26.348;2022-08-07T18:16:18;6.53;;;4.60;;
34565;SDS011;20803;42.676;26.348;2022-08-07T18:18:50;7.90;;;4.90;;
34565;SDS011;20803;42.676;26.348;2022-08-07T18:21:25;11.57;;;5.17;;
34565;SDS011;20803;42.676;26.348;2022-08-07T18:24:02;5.83;;;4.67;;